createdAt,value
2023-05-22T00:01:04.975Z,8.93
2023-05-22T00:03:33.255Z,7.85
2023-05-22T00:06:02.750Z,7.80
2023-05-22T00:08:31.046Z,7.75
2023-05-22T00:10:59.180Z,7.95
2023-05-22T00:13:27.249Z,8.30
2023-05-22T00:15:56.707Z,9.02
2023-05-22T00:18:27.173Z,8.25
2023-05-22T00:20:55.742Z,8.00
2023-05-22T00:23:29.945Z,8.43
2023-05-22T00:25:58.277Z,8.32
2023-05-22T00:28:28.308Z,8.48
2023-05-22T00:31:02.789Z,8.20
2023-05-22T00:33:39.691Z,8.27
2023-05-22T00:36:09.687Z,7.95
2023-05-22T00:38:42.013Z,7.28
2023-05-22T00:41:11.079Z,8.15
2023-05-22T00:43:43.253Z,8.45
2023-05-22T00:46:12.641Z,9.02
2023-05-22T00:48:40.868Z,8.18
2023-05-22T00:51:09.333Z,8.52
2023-05-22T00:53:38.994Z,9.13
2023-05-22T00:56:08.086Z,9.05
2023-05-22T00:58:36.082Z,8.85
2023-05-22T01:01:05.443Z,8.30
2023-05-22T01:03:33.747Z,8.50
2023-05-22T01:06:02.251Z,8.60
2023-05-22T01:08:30.504Z,9.10
2023-05-22T01:11:05.383Z,9.35
2023-05-22T01:13:48.711Z,9.43
2023-05-22T01:16:26.102Z,8.93
2023-05-22T01:19:04.153Z,9.40
2023-05-22T01:21:40.202Z,10.20
2023-05-22T01:24:44.108Z,10.20
2023-05-22T01:27:35.663Z,10.38
2023-05-22T01:30:18.655Z,9.13
2023-05-22T01:32:49.224Z,10.10
2023-05-22T01:35:19.698Z,9.50
2023-05-22T01:37:49.031Z,10.13
2023-05-22T01:40:18.656Z,10.43
2023-05-22T01:42:46.896Z,8.65
2023-05-22T01:45:16.048Z,9.40
2023-05-22T01:47:44.302Z,9.80
2023-05-22T01:50:14.289Z,9.27
2023-05-22T01:52:52.873Z,10.40
2023-05-22T01:55:29.207Z,9.73
2023-05-22T01:58:02.319Z,9.23
2023-05-22T02:00:31.404Z,9.60
2023-05-22T02:03:06.850Z,9.38
2023-05-22T02:05:41.449Z,9.35
2023-05-22T02:08:10.014Z,9.15
2023-05-22T02:10:40.077Z,9.35
2023-05-22T02:13:08.392Z,11.27
2023-05-22T02:15:36.658Z,9.90
2023-05-22T02:18:12.976Z,10.45
2023-05-22T02:20:42.978Z,10.48
2023-05-22T02:23:12.738Z,10.35
2023-05-22T02:25:44.338Z,10.57
2023-05-22T02:28:12.692Z,10.40
2023-05-22T02:30:44.849Z,10.05
2023-05-22T02:33:13.294Z,10.88
2023-05-22T02:35:47.314Z,10.57
2023-05-22T02:38:19.403Z,10.95
2023-05-22T02:40:49.766Z,10.57
2023-05-22T02:43:18.089Z,11.15
2023-05-22T02:45:46.468Z,10.98
2023-05-22T02:48:14.605Z,10.82
2023-05-22T02:50:44.834Z,11.60
2023-05-22T02:53:14.412Z,11.10
2023-05-22T02:55:42.731Z,11.85
2023-05-22T02:58:11.975Z,10.88
2023-05-22T03:00:40.275Z,10.57
2023-05-22T03:03:09.993Z,10.43
2023-05-22T03:05:42.860Z,10.05
2023-05-22T03:08:12.799Z,10.20
2023-05-22T03:10:43.250Z,9.53
2023-05-22T03:13:13.641Z,10.15
2023-05-22T03:15:44.393Z,10.30
2023-05-22T03:18:12.957Z,11.10
2023-05-22T03:20:41.829Z,10.57
2023-05-22T03:23:11.366Z,10.98
2023-05-22T03:25:40.833Z,9.50
2023-05-22T03:28:10.971Z,9.27
2023-05-22T03:30:39.090Z,10.30
2023-05-22T03:33:07.242Z,10.50
2023-05-22T03:35:36.207Z,10.70
2023-05-22T03:38:04.178Z,9.60
2023-05-22T03:40:32.197Z,9.93
2023-05-22T03:43:01.618Z,9.73
2023-05-22T03:45:29.645Z,9.85
2023-05-22T03:47:57.777Z,9.63
2023-05-22T03:50:25.812Z,10.05
2023-05-22T03:52:53.787Z,9.60
2023-05-22T03:55:21.797Z,10.02
2023-05-22T03:57:49.854Z,9.80
2023-05-22T04:00:20.775Z,10.30
2023-05-22T04:02:50.543Z,9.17
2023-05-22T04:05:18.848Z,9.73
2023-05-22T04:07:46.949Z,9.30
2023-05-22T04:10:14.969Z,9.07
2023-05-22T04:12:42.935Z,8.90
2023-05-22T04:15:11.212Z,9.90
2023-05-22T04:17:42.344Z,8.77
2023-05-22T04:20:13.454Z,9.50
2023-05-22T04:22:41.769Z,9.10
2023-05-22T04:25:10.378Z,9.50
2023-05-22T04:27:38.678Z,9.30
2023-05-22T04:30:10.783Z,9.88
2023-05-22T04:32:40.831Z,9.45
2023-05-22T04:35:10.149Z,9.70
2023-05-22T04:37:38.189Z,9.90
2023-05-22T04:40:08.334Z,9.60
2023-05-22T04:42:37.345Z,9.85
2023-05-22T04:45:06.039Z,9.60
2023-05-22T04:47:34.333Z,9.38
2023-05-22T04:50:04.042Z,10.32
2023-05-22T04:52:32.338Z,9.88
2023-05-22T04:55:03.330Z,10.70
2023-05-22T04:57:33.368Z,11.27
2023-05-22T05:00:08.456Z,11.27
2023-05-22T05:02:36.607Z,10.38
2023-05-22T05:05:06.550Z,11.93
2023-05-22T05:07:37.565Z,12.25
2023-05-22T05:10:06.246Z,12.90
2023-05-22T05:12:34.206Z,13.40
2023-05-22T05:15:02.225Z,12.82
2023-05-22T05:17:38.149Z,14.20
2023-05-22T05:20:10.884Z,13.82
2023-05-22T05:22:39.840Z,13.88
2023-05-22T05:25:31.168Z,14.60
2023-05-22T05:27:59.688Z,13.77
2023-05-22T05:30:35.414Z,15.05
2023-05-22T05:33:03.475Z,15.02
2023-05-22T05:35:32.844Z,14.60
2023-05-22T05:38:01.921Z,14.63
2023-05-22T05:40:30.004Z,14.88
2023-05-22T05:42:58.004Z,14.27
2023-05-22T05:45:27.286Z,15.55
2023-05-22T05:47:55.310Z,14.80
2023-05-22T05:50:23.775Z,15.85
2023-05-22T05:52:53.474Z,14.37
2023-05-22T05:55:24.286Z,14.52
2023-05-22T05:57:52.869Z,15.38
2023-05-22T06:00:22.653Z,14.88
2023-05-22T06:02:51.024Z,13.90
2023-05-22T06:05:19.642Z,15.18
2023-05-22T06:07:48.222Z,14.57
2023-05-22T06:10:17.543Z,14.25
2023-05-22T06:12:45.564Z,14.90
2023-05-22T06:15:13.851Z,14.88
2023-05-22T06:17:41.954Z,14.15
2023-05-22T06:20:10.516Z,13.10
2023-05-22T06:22:39.073Z,14.20
2023-05-22T06:25:08.217Z,14.07
2023-05-22T06:27:39.104Z,13.27
2023-05-22T06:30:08.874Z,14.25
2023-05-22T06:32:37.041Z,14.10
2023-05-22T06:35:05.710Z,13.80
2023-05-22T06:37:35.760Z,13.68
2023-05-22T06:40:04.006Z,13.30
2023-05-22T06:42:31.976Z,12.75
2023-05-22T06:45:01.360Z,14.80
2023-05-22T06:47:29.717Z,14.65
2023-05-22T06:49:57.736Z,14.13
2023-05-22T06:52:25.779Z,14.05
2023-05-22T06:54:54.074Z,14.75
2023-05-22T06:57:23.986Z,14.55
2023-05-22T06:59:51.981Z,14.95
2023-05-22T07:02:21.304Z,13.48
2023-05-22T07:04:49.418Z,14.48
2023-05-22T07:07:17.397Z,13.27
2023-05-22T07:09:45.441Z,13.20
2023-05-22T07:12:13.730Z,14.30
2023-05-22T07:14:42.742Z,13.77
2023-05-22T07:17:10.690Z,13.32
2023-05-22T07:19:40.034Z,13.98
2023-05-22T07:22:08.117Z,13.80
2023-05-22T07:24:36.247Z,13.35
2023-05-22T07:27:04.619Z,12.90
2023-05-22T07:29:32.886Z,14.85
2023-05-22T07:32:01.148Z,14.18
2023-05-22T07:34:33.144Z,14.57
2023-05-22T07:37:08.341Z,14.32
2023-05-22T07:39:36.657Z,14.32
2023-05-22T07:42:05.301Z,13.82
2023-05-22T07:44:33.667Z,13.57
2023-05-22T07:47:02.006Z,13.23
2023-05-22T07:49:30.135Z,14.02
2023-05-22T07:51:58.163Z,14.35
2023-05-22T07:54:27.491Z,13.48
2023-05-22T07:56:56.255Z,12.32
2023-05-22T07:59:25.629Z,13.50
2023-05-22T08:01:54.167Z,12.82
2023-05-22T08:04:22.392Z,12.82
2023-05-22T08:06:50.825Z,13.95
2023-05-22T08:09:21.237Z,12.95
2023-05-22T08:11:51.356Z,13.80
2023-05-22T08:14:19.568Z,13.38
2023-05-22T08:16:47.659Z,12.77
2023-05-22T08:19:16.232Z,13.82
2023-05-22T08:21:44.373Z,13.65
2023-05-22T08:24:12.530Z,13.07
2023-05-22T08:26:41.518Z,11.73
2023-05-22T08:29:11.563Z,11.20
2023-05-22T08:31:39.644Z,11.30
2023-05-22T08:34:07.803Z,12.25
2023-05-22T08:36:35.817Z,11.25
2023-05-22T08:39:04.002Z,12.32
2023-05-22T08:41:32.331Z,12.77
2023-05-22T08:44:00.453Z,13.00
2023-05-22T08:46:31.757Z,12.90
2023-05-22T08:49:00.170Z,13.10
2023-05-22T08:51:31.523Z,12.82
2023-05-22T08:54:01.649Z,12.52
2023-05-22T08:56:32.137Z,12.75
2023-05-22T08:59:01.845Z,13.25
2023-05-22T09:01:32.924Z,12.18
2023-05-22T09:04:03.505Z,13.80
2023-05-22T09:06:31.940Z,12.23
2023-05-22T09:09:01.531Z,13.40
2023-05-22T09:11:29.682Z,12.30
2023-05-22T09:14:09.864Z,12.02
2023-05-22T09:16:47.234Z,11.63
2023-05-22T09:19:15.968Z,11.15
2023-05-22T09:21:45.708Z,11.77
2023-05-22T09:24:13.900Z,9.68
2023-05-22T09:26:42.272Z,11.23
2023-05-22T09:29:10.971Z,10.15
2023-05-22T09:31:46.979Z,9.13
2023-05-22T09:34:16.010Z,8.93
2023-05-22T09:36:44.361Z,9.50
2023-05-22T09:39:12.517Z,9.10
2023-05-22T09:41:41.390Z,8.85
2023-05-22T09:44:16.928Z,8.40
2023-05-22T09:46:48.197Z,8.75
2023-05-22T09:49:17.295Z,9.10
2023-05-22T09:51:48.420Z,9.30
2023-05-22T09:54:17.606Z,9.63
2023-05-22T09:56:48.765Z,10.07
2023-05-22T09:59:21.859Z,9.82
2023-05-22T10:01:52.276Z,9.95
2023-05-22T10:04:22.833Z,10.45
2023-05-22T10:06:52.992Z,10.10
2023-05-22T10:09:25.060Z,10.57
2023-05-22T10:11:56.389Z,10.52
2023-05-22T10:14:25.560Z,10.10
2023-05-22T10:16:56.869Z,10.48
2023-05-22T10:19:27.800Z,10.10
2023-05-22T10:21:59.552Z,9.57
2023-05-22T10:24:27.783Z,10.90
2023-05-22T10:26:56.020Z,10.65
2023-05-22T10:29:29.292Z,10.43
2023-05-22T10:32:05.217Z,9.95
2023-05-22T10:34:51.931Z,10.75
2023-05-22T10:37:37.150Z,10.68
2023-05-22T10:40:10.905Z,9.00
2023-05-22T10:42:40.183Z,10.35
2023-05-22T10:45:09.461Z,9.52
2023-05-22T10:47:39.201Z,9.65
2023-05-22T10:50:11.267Z,10.27
2023-05-22T10:52:40.094Z,10.07
2023-05-22T10:55:09.387Z,11.13
2023-05-22T10:57:39.605Z,9.48
2023-05-22T11:00:09.853Z,10.32
2023-05-22T11:02:44.216Z,9.93
2023-05-22T11:05:36.631Z,10.05
2023-05-22T11:08:40.736Z,9.38
2023-05-22T11:11:14.115Z,10.43
2023-05-22T11:13:43.630Z,10.93
2023-05-22T11:16:12.380Z,10.70
2023-05-22T11:18:41.768Z,12.25
2023-05-22T11:21:15.150Z,11.32
2023-05-22T11:23:44.862Z,11.60
2023-05-22T11:26:20.383Z,10.35
2023-05-22T11:28:55.724Z,10.30
2023-05-22T11:31:26.877Z,10.52
2023-05-22T11:33:56.502Z,10.95
2023-05-22T11:36:25.095Z,10.88
2023-05-22T11:38:57.915Z,11.55
2023-05-22T11:41:25.992Z,11.98
2023-05-22T11:43:53.987Z,12.25
2023-05-22T11:46:22.115Z,12.15
2023-05-22T11:48:50.189Z,12.77
2023-05-22T11:51:22.749Z,12.63
2023-05-22T11:53:51.550Z,12.15
2023-05-22T11:56:23.436Z,13.77
2023-05-22T11:58:51.902Z,14.00
2023-05-22T12:01:20.023Z,12.88
2023-05-22T12:03:48.595Z,14.80
2023-05-22T12:06:18.181Z,14.88
2023-05-22T12:08:47.904Z,15.10
2023-05-22T12:11:16.053Z,14.70
2023-05-22T12:13:45.038Z,13.13
2023-05-22T12:16:21.852Z,14.75
2023-05-22T12:18:54.026Z,14.38
2023-05-22T12:21:23.602Z,15.50
2023-05-22T12:23:53.230Z,15.10
2023-05-22T12:26:21.448Z,16.23
2023-05-22T12:28:53.560Z,15.50
2023-05-22T12:31:22.711Z,15.18
2023-05-22T12:33:54.292Z,16.30
2023-05-22T12:36:22.305Z,14.45
2023-05-22T12:38:50.372Z,14.15
2023-05-22T12:41:19.770Z,14.50
2023-05-22T12:43:48.027Z,13.30
2023-05-22T12:46:16.202Z,12.43
2023-05-22T12:48:44.228Z,11.70
2023-05-22T12:51:13.614Z,11.25
2023-05-22T12:53:41.686Z,10.32
2023-05-22T12:56:10.078Z,10.75
2023-05-22T12:58:39.531Z,9.55
2023-05-22T13:01:07.980Z,10.32
2023-05-22T13:03:36.605Z,8.82
2023-05-22T13:06:05.297Z,9.52
2023-05-22T13:08:35.747Z,9.55
2023-05-22T13:11:04.269Z,9.80
2023-05-22T13:13:32.321Z,8.05
2023-05-22T13:16:02.076Z,7.78
2023-05-22T13:18:30.185Z,9.38
2023-05-22T13:21:00.483Z,8.98
2023-05-22T13:23:28.570Z,8.07
2023-05-22T13:25:56.893Z,7.43
2023-05-22T13:28:26.411Z,7.22
2023-05-22T13:30:54.939Z,7.45
2023-05-22T13:33:25.725Z,7.07
2023-05-22T13:35:53.831Z,6.57
2023-05-22T13:38:22.281Z,6.00
2023-05-22T13:40:51.935Z,7.13
2023-05-22T13:43:19.972Z,6.63
2023-05-22T13:45:48.246Z,6.38
2023-05-22T13:48:17.562Z,6.20
2023-05-22T13:50:47.077Z,5.60
2023-05-22T13:53:15.353Z,6.28
2023-05-22T13:55:43.368Z,5.95
2023-05-22T13:58:11.343Z,5.45
2023-05-22T14:00:39.295Z,6.70
2023-05-22T14:03:07.450Z,6.05
2023-05-22T14:05:35.470Z,5.60
2023-05-22T14:08:04.831Z,5.55
2023-05-22T14:10:34.338Z,5.97
2023-05-22T14:13:02.454Z,5.80
2023-05-22T14:15:30.812Z,5.75
2023-05-22T14:17:58.890Z,5.45
2023-05-22T14:20:27.039Z,6.22
2023-05-22T14:22:57.684Z,5.32
2023-05-22T14:25:28.044Z,5.68
2023-05-22T14:27:56.246Z,6.22
2023-05-22T14:30:24.279Z,6.00
2023-05-22T14:32:52.760Z,5.90
2023-05-22T14:35:20.934Z,6.07
2023-05-22T14:37:50.215Z,6.07
2023-05-22T14:40:18.589Z,6.45
2023-05-22T14:42:48.020Z,5.95
2023-05-22T14:45:16.134Z,5.50
2023-05-22T14:47:44.326Z,5.47
2023-05-22T14:50:18.974Z,5.35
2023-05-22T14:52:47.744Z,5.40
2023-05-22T14:55:15.946Z,5.25
2023-05-22T14:57:43.976Z,5.53
2023-05-22T15:00:14.628Z,5.60
2023-05-22T15:02:42.727Z,5.18
2023-05-22T15:05:11.355Z,5.90
2023-05-22T15:07:44.512Z,5.50
2023-05-22T15:10:14.080Z,5.65
2023-05-22T15:12:42.111Z,5.80
2023-05-22T15:15:10.924Z,6.13
2023-05-22T15:17:42.548Z,5.90
2023-05-22T15:20:12.104Z,6.00
2023-05-22T15:22:40.330Z,6.03
2023-05-22T15:25:11.542Z,6.10
2023-05-22T15:27:40.788Z,5.65
2023-05-22T15:30:10.670Z,5.47
2023-05-22T15:32:40.567Z,4.80
2023-05-22T15:35:09.430Z,4.20
2023-05-22T15:37:37.490Z,4.65
2023-05-22T15:40:06.987Z,4.30
2023-05-22T15:42:35.306Z,4.90
2023-05-22T15:45:03.619Z,4.50
2023-05-22T15:47:31.689Z,4.50
2023-05-22T15:50:01.395Z,4.60
2023-05-22T15:52:29.369Z,4.15
2023-05-22T15:54:58.761Z,4.45
2023-05-22T15:57:28.262Z,4.95
2023-05-22T15:59:56.290Z,4.60
2023-05-22T16:02:24.329Z,4.65
2023-05-22T16:04:52.697Z,4.28
2023-05-22T16:07:22.096Z,4.15
2023-05-22T16:09:50.757Z,4.55
2023-05-22T16:12:19.225Z,4.38
2023-05-22T16:14:47.524Z,4.00
2023-05-22T16:17:15.568Z,4.20
2023-05-22T16:19:43.573Z,4.57
2023-05-22T16:22:13.122Z,4.65
2023-05-22T16:24:42.491Z,4.25
2023-05-22T16:27:10.496Z,4.55
2023-05-22T16:29:38.793Z,4.68
2023-05-22T16:32:07.048Z,4.80
2023-05-22T16:34:36.443Z,4.60
2023-05-22T16:37:04.553Z,5.10
2023-05-22T16:39:32.522Z,5.15
2023-05-22T16:42:02.095Z,5.28
2023-05-22T16:44:30.109Z,5.40
2023-05-22T16:46:58.293Z,4.93
2023-05-22T16:49:26.561Z,5.57
2023-05-22T16:51:54.563Z,4.88
2023-05-22T16:54:22.817Z,5.53
2023-05-22T16:56:50.892Z,4.97
2023-05-22T16:59:20.600Z,6.68
2023-05-22T17:01:48.763Z,5.90
2023-05-22T17:04:19.109Z,5.60
2023-05-22T17:06:47.366Z,5.60
2023-05-22T17:09:15.510Z,6.32
2023-05-22T17:11:44.838Z,6.10
2023-05-22T17:14:13.158Z,5.10
2023-05-22T17:16:42.602Z,5.57
2023-05-22T17:19:30.837Z,5.70
2023-05-22T17:21:59.118Z,6.13
2023-05-22T17:24:29.022Z,5.72
2023-05-22T17:26:57.180Z,5.28
2023-05-22T17:29:27.281Z,5.60
2023-05-22T17:31:57.777Z,5.72
2023-05-22T17:34:25.915Z,6.55
2023-05-22T17:36:54.040Z,6.32
2023-05-22T17:39:22.361Z,6.50
2023-05-22T17:41:50.596Z,6.38
2023-05-22T17:44:19.119Z,6.60
2023-05-22T17:46:47.311Z,6.05
2023-05-22T17:49:17.167Z,6.70
2023-05-22T17:51:45.248Z,6.90
2023-05-22T17:54:16.963Z,7.03
2023-05-22T17:56:45.521Z,7.75
2023-05-22T17:59:13.798Z,6.78
2023-05-22T18:01:41.893Z,6.90
2023-05-22T18:04:11.314Z,7.32
2023-05-22T18:06:40.948Z,8.00
2023-05-22T18:09:09.304Z,7.18
2023-05-22T18:11:37.582Z,10.35
2023-05-22T18:14:05.733Z,8.13
2023-05-22T18:16:33.946Z,7.57
2023-05-22T18:19:02.301Z,7.68
2023-05-22T18:21:30.762Z,7.80
2023-05-22T18:24:01.034Z,7.18
2023-05-22T18:26:29.298Z,8.27
2023-05-22T18:28:57.501Z,8.27
2023-05-22T18:31:25.596Z,7.93
2023-05-22T18:33:54.251Z,7.75
2023-05-22T18:36:22.650Z,9.00
2023-05-22T18:38:53.312Z,8.20
2023-05-22T18:41:23.108Z,7.93
2023-05-22T18:43:52.711Z,8.35
2023-05-22T18:46:20.936Z,9.32
2023-05-22T18:48:49.930Z,8.55
2023-05-22T18:51:19.835Z,8.55
2023-05-22T18:53:49.771Z,9.15
2023-05-22T18:56:17.912Z,9.13
2023-05-22T18:58:48.616Z,9.10
2023-05-22T19:01:17.730Z,9.10
2023-05-22T19:04:06.555Z,9.55
2023-05-22T19:06:35.631Z,9.43
2023-05-22T19:09:06.813Z,9.70
2023-05-22T19:11:35.217Z,9.07
2023-05-22T19:14:25.420Z,9.43
2023-05-22T19:16:54.427Z,9.75
2023-05-22T19:19:22.923Z,8.90
2023-05-22T19:21:51.355Z,8.93
2023-05-22T19:24:19.551Z,8.93
2023-05-22T19:26:47.962Z,10.32
2023-05-22T19:29:19.061Z,9.50
2023-05-22T19:31:47.551Z,9.18
2023-05-22T19:34:17.216Z,9.63
2023-05-22T19:36:47.675Z,8.95
2023-05-22T19:39:16.301Z,9.65
2023-05-22T19:41:44.723Z,8.73
2023-05-22T19:44:32.785Z,8.20
2023-05-22T19:47:03.601Z,8.55
2023-05-22T19:49:37.143Z,9.05
2023-05-22T19:52:06.771Z,9.30
2023-05-22T19:54:35.645Z,9.07
2023-05-22T19:57:06.637Z,9.25
2023-05-22T19:59:56.191Z,10.05
2023-05-22T20:02:27.365Z,10.65
2023-05-22T20:04:55.668Z,9.52
2023-05-22T20:07:44.889Z,10.75
2023-05-22T20:10:13.255Z,10.98
2023-05-22T20:12:41.506Z,10.95
2023-05-22T20:15:15.307Z,10.48
2023-05-22T20:17:47.811Z,9.57
2023-05-22T20:20:16.123Z,9.50
2023-05-22T20:22:46.701Z,10.10
2023-05-22T20:25:14.730Z,9.93
2023-05-22T20:27:42.718Z,9.05
2023-05-22T20:30:12.871Z,9.48
2023-05-22T20:32:42.539Z,9.15
2023-05-22T20:35:13.318Z,9.02
2023-05-22T20:37:42.152Z,8.88
2023-05-22T20:40:10.990Z,8.13
2023-05-22T20:42:39.336Z,8.30
2023-05-22T20:45:08.455Z,8.00
2023-05-22T20:47:36.541Z,7.43
2023-05-22T20:50:05.236Z,8.18
2023-05-22T20:52:36.916Z,8.35
2023-05-22T20:55:05.813Z,8.57
2023-05-22T20:57:33.855Z,7.18
2023-05-22T21:00:02.430Z,8.40
2023-05-22T21:02:31.005Z,8.60
2023-05-22T21:04:59.407Z,9.02
2023-05-22T21:07:27.414Z,8.57
2023-05-22T21:09:57.064Z,9.48
2023-05-22T21:12:25.260Z,9.05
2023-05-22T21:14:53.382Z,8.40
2023-05-22T21:17:22.815Z,8.38
2023-05-22T21:19:50.947Z,8.55
2023-05-22T21:22:19.037Z,9.43
2023-05-22T21:24:48.890Z,7.03
2023-05-22T21:27:18.535Z,7.25
2023-05-22T21:29:46.861Z,8.15
2023-05-22T21:32:15.099Z,7.28
2023-05-22T21:34:43.467Z,7.65
2023-05-22T21:37:11.527Z,9.13
2023-05-22T21:39:39.516Z,6.78
2023-05-22T21:42:10.422Z,7.40
2023-05-22T21:45:00.379Z,6.72
2023-05-22T21:47:28.418Z,7.20
2023-05-22T21:49:56.484Z,6.13
2023-05-22T21:52:28.677Z,6.97
2023-05-22T21:54:58.227Z,6.07
2023-05-22T21:57:26.230Z,6.68
2023-05-22T21:59:58.040Z,6.25
2023-05-22T22:02:26.141Z,6.35
2023-05-22T22:04:54.197Z,6.75
2023-05-22T22:07:22.279Z,6.50
2023-05-22T22:09:51.686Z,6.57
2023-05-22T22:12:19.675Z,5.78
2023-05-22T22:14:47.823Z,6.45
2023-05-22T22:17:17.860Z,5.93
2023-05-22T22:19:46.977Z,6.40
2023-05-22T22:22:14.991Z,6.63
2023-05-22T22:24:42.975Z,7.05
2023-05-22T22:27:11.124Z,7.18
2023-05-22T22:29:39.393Z,7.60
2023-05-22T22:32:07.864Z,8.85
2023-05-22T22:34:40.633Z,7.03
2023-05-22T22:37:08.810Z,7.03
2023-05-22T22:39:36.776Z,7.25
2023-05-22T22:42:05.197Z,7.18
2023-05-22T22:44:33.692Z,6.25
2023-05-22T22:47:02.834Z,6.72
2023-05-22T22:49:32.718Z,7.22
2023-05-22T22:52:02.175Z,8.00
2023-05-22T22:54:30.268Z,7.95
2023-05-22T22:56:58.440Z,7.30
2023-05-22T22:59:26.553Z,8.88
2023-05-22T23:01:56.852Z,7.82
2023-05-22T23:04:28.282Z,9.18
2023-05-22T23:06:57.621Z,8.32
2023-05-22T23:09:27.131Z,9.60
2023-05-22T23:11:55.133Z,9.93
2023-05-22T23:14:24.786Z,9.45
2023-05-22T23:16:52.884Z,9.70
2023-05-22T23:19:20.936Z,8.68
2023-05-22T23:21:49.061Z,9.65
2023-05-22T23:24:19.473Z,10.00
2023-05-22T23:26:48.812Z,9.27
2023-05-22T23:29:16.784Z,9.88
2023-05-22T23:31:44.804Z,8.88
2023-05-22T23:34:12.789Z,8.75
2023-05-22T23:36:41.474Z,8.93
2023-05-22T23:39:09.796Z,9.23
2023-05-22T23:41:37.947Z,9.90
2023-05-22T23:44:07.811Z,8.77
2023-05-22T23:46:39.763Z,8.48
2023-05-22T23:49:08.288Z,8.35
2023-05-22T23:51:36.589Z,8.50
2023-05-22T23:54:04.772Z,9.40
2023-05-22T23:56:33.236Z,7.47
2023-05-22T23:59:01.342Z,8.13
